Time;durP1;ratioP1;P1;durP2;ratioP2;P2;SDS_P1;SDS_P2;PMS_P1;PMS_P2;Temp;Humidity;BMP_temperature;BMP_pressure;BME280_temperature;BME280_humidity;BME280_pressure;Samples;Min_cycle;Max_cycle;Signal;HPM_P1;HPM_P2
2021/08/12 00:01:12;;;;;;;7.22;3.70;;;;;;;15.07;73.66;101600.36;1797396;78;21826;-78
2021/08/12 00:03:39;;;;;;;4.85;3.50;;;;;;;15.08;73.69;101595.09;1774936;80;21047;-78
2021/08/12 00:06:09;;;;;;;6.78;3.90;;;;;;;15.06;73.74;101599.48;1740887;80;22264;-78
2021/08/12 00:08:38;;;;;;;7.90;4.00;;;;;;;15.05;73.78;101606.06;1768404;80;21083;-80
2021/08/12 00:11:05;;;;;;;5.72;3.85;;;;;;;15.04;73.87;101607.83;1768981;80;21098;-79
2021/08/12 00:13:34;;;;;;;7.15;3.80;;;;;;;15.01;73.99;101607.76;1777453;80;21775;-79
2021/08/12 00:16:03;;;;;;;5.20;3.95;;;;;;;15.04;74.08;101616.23;1777452;80;21035;-79
2021/08/12 00:18:35;;;;;;;5.35;3.90;;;;;;;15.06;74.20;101617.15;1766237;80;21463;-79
2021/08/12 00:21:01;;;;;;;6.20;3.65;;;;;;;15.06;74.18;101617.15;1766061;80;21202;-79
2021/08/12 00:23:28;;;;;;;7.05;4.22;;;;;;;15.06;74.23;101617.15;1777317;80;21058;-79
2021/08/12 00:25:56;;;;;;;9.58;3.72;;;;;;;15.04;74.23;101621.09;1778079;80;22500;-79
2021/08/12 00:28:29;;;;;;;7.53;4.30;;;;;;;15.05;74.32;101621.98;1777938;80;21015;-79
2021/08/12 00:31:01;;;;;;;8.88;4.10;;;;;;;15.05;74.30;101619.33;1763353;80;21533;-79
2021/08/12 00:33:27;;;;;;;6.85;4.33;;;;;;;15.03;74.42;101617.96;1773865;80;21051;-80
2021/08/12 00:35:54;;;;;;;6.70;4.12;;;;;;;15.02;74.51;101619.28;1777835;80;21607;-79
2021/08/12 00:38:27;;;;;;;5.67;3.83;;;;;;;15.00;74.55;101620.56;1777787;80;21789;-79
2021/08/12 00:40:55;;;;;;;12.10;4.45;;;;;;;15.01;74.68;101622.34;1752873;80;21638;-79
2021/08/12 00:43:22;;;;;;;5.70;3.70;;;;;;;15.02;74.68;101621.93;1770199;80;21105;-79
2021/08/12 00:45:49;;;;;;;6.28;3.80;;;;;;;15.01;74.73;101624.99;1753826;80;21615;-79
2021/08/12 00:48:19;;;;;;;10.25;4.17;;;;;;;15.03;74.83;101628.56;1760718;80;21682;-79
2021/08/12 00:50:50;;;;;;;6.97;4.12;;;;;;;15.02;74.83;101625.91;1766803;80;21067;-79
2021/08/12 00:53:17;;;;;;;5.37;3.80;;;;;;;15.01;74.87;101628.97;1751499;80;21531;-79
2021/08/12 00:55:45;;;;;;;9.80;4.22;;;;;;;15.01;74.93;101627.64;1717098;80;21047;-79
2021/08/12 00:58:16;;;;;;;10.23;4.72;;;;;;;15.00;75.00;101627.60;1774626;80;21713;-79
2021/08/12 01:00:55;;;;;;;10.98;4.47;;;;;;;14.99;75.05;101621.41;1769193;80;21070;-79
2021/08/12 01:03:23;;;;;;;6.95;4.37;;;;;;;14.99;75.17;101624.06;1772766;80;21810;-79
2021/08/12 01:05:59;;;;;;;6.45;4.67;;;;;;;15.00;75.25;101624.95;1756511;81;21068;-79
2021/08/12 01:09:10;;;;;;;10.65;4.10;;;;;;;14.99;75.34;101621.41;1769714;80;21812;-79
2021/08/12 01:11:44;;;;;;;7.78;4.65;;;;;;;14.98;75.37;101618.32;1808037;79;22314;-79
2021/08/12 01:14:39;;;;;;;5.95;4.03;;;;;;;14.97;75.46;101618.73;1789000;79;21097;-79
2021/08/12 01:17:11;;;;;;;9.08;4.35;;;;;;;14.98;75.57;101623.63;1777461;80;21782;-79
2021/08/12 01:20:17;;;;;;;8.23;4.67;;;;;;;14.98;75.62;101617.00;1809414;79;21042;-79
2021/08/12 01:22:49;;;;;;;6.40;4.03;;;;;;;14.97;75.75;101617.84;1814114;79;22330;-79
2021/08/12 01:25:27;;;;;;;8.55;4.87;;;;;;;14.97;75.91;101620.05;1777319;80;20992;-79
2021/08/12 01:28:06;;;;;;;8.23;4.40;;;;;;;14.99;75.88;101616.55;1772724;80;21094;-78
2021/08/12 01:30:38;;;;;;;10.60;4.25;;;;;;;14.99;75.88;101617.88;1773970;80;22054;-80
2021/08/12 01:33:37;;;;;;;8.05;5.00;;;;;;;15.00;75.96;101622.30;1804731;78;21066;-78
2021/08/12 01:36:04;;;;;;;9.10;4.33;;;;;;;15.00;75.94;101619.65;1761993;80;21619;-78
2021/08/12 01:38:33;;;;;;;9.05;4.30;;;;;;;14.99;75.98;101620.09;1766083;80;21122;-79
2021/08/12 01:41:00;;;;;;;8.03;4.25;;;;;;;14.97;76.01;101612.09;1756727;80;21000;-78
2021/08/12 01:43:27;;;;;;;6.90;4.20;;;;;;;14.97;76.02;101614.75;1771477;80;22484;-78
2021/08/12 01:45:57;;;;;;;11.75;4.30;;;;;;;14.97;76.06;101610.77;1777564;80;21333;-79
2021/08/12 01:48:25;;;;;;;5.83;4.30;;;;;;;14.98;76.09;101618.32;1767521;80;21063;-78
2021/08/12 01:50:53;;;;;;;8.03;4.65;;;;;;;14.99;76.13;101616.55;1765482;80;21097;-79
2021/08/12 01:53:20;;;;;;;8.30;4.53;;;;;;;14.97;76.09;101610.77;1778064;80;21606;-78
2021/08/12 01:55:48;;;;;;;7.45;4.37;;;;;;;14.98;76.20;101610.37;1777927;80;22296;-79
2021/08/12 01:58:19;;;;;;;7.55;4.45;;;;;;;14.99;76.24;101611.25;1767933;80;21543;-78
2021/08/12 02:00:51;;;;;;;8.23;4.00;;;;;;;14.99;76.27;101611.25;1777744;80;21038;-79
2021/08/12 02:03:15;;;;;;;5.40;4.47;;;;;;;15.00;76.34;101622.30;1743466;80;21074;-79
2021/08/12 02:05:47;;;;;;;10.08;4.37;;;;;;;15.01;76.35;101623.66;1773740;80;21321;-79
2021/08/12 02:08:14;;;;;;;7.58;4.08;;;;;;;15.02;76.35;101622.81;1755769;80;22449;-79
2021/08/12 02:10:41;;;;;;;10.55;4.83;;;;;;;15.02;76.40;101625.47;1770067;80;21066;-78
2021/08/12 02:13:10;;;;;;;8.48;5.17;;;;;;;15.01;76.37;101621.02;1773913;80;21066;-79
2021/08/12 02:15:37;;;;;;;8.00;4.62;;;;;;;15.00;76.41;101626.28;1762800;80;21194;-79
2021/08/12 02:18:07;;;;;;;7.22;4.25;;;;;;;14.99;76.47;101617.88;1767701;80;21053;-79
2021/08/12 02:20:34;;;;;;;7.47;4.30;;;;;;;15.00;76.52;101614.34;1773399;80;21821;-79
2021/08/12 02:23:17;;;;;;;7.53;4.75;;;;;;;14.98;76.54;101620.97;1774159;80;21014;-79
2021/08/12 02:26:02;;;;;;;6.00;4.45;;;;;;;14.97;76.58;101612.09;1733259;80;22198;-79
2021/08/12 02:28:31;;;;;;;7.60;4.70;;;;;;;14.98;76.63;101614.34;1776214;80;21086;-79
2021/08/12 02:30:58;;;;;;;8.88;4.67;;;;;;;14.97;76.72;101623.14;1738151;81;21054;-79
2021/08/12 02:33:30;;;;;;;9.08;4.40;;;;;;;14.97;76.78;101616.08;1741792;82;21789;-79
2021/08/12 02:35:56;;;;;;;7.87;4.42;;;;;;;14.97;76.76;101615.19;1771094;80;21074;-79
2021/08/12 02:38:25;;;;;;;6.55;4.10;;;;;;;14.96;76.80;101618.28;1764486;80;21066;-79
2021/08/12 02:40:53;;;;;;;6.33;4.37;;;;;;;14.96;76.85;101618.72;1739276;81;21129;-79
2021/08/12 02:43:24;;;;;;;6.80;4.65;;;;;;;14.93;76.80;101616.87;1746515;80;21289;-79
2021/08/12 02:45:55;;;;;;;7.50;4.62;;;;;;;14.93;76.88;101618.20;1746904;80;22576;-79
2021/08/12 02:48:27;;;;;;;6.40;4.53;;;;;;;14.91;76.92;101621.26;1775863;80;21106;-79
2021/08/12 02:50:57;;;;;;;7.12;4.40;;;;;;;14.90;76.98;101618.57;1773153;80;21650;-79
2021/08/12 02:53:27;;;;;;;7.72;4.30;;;;;;;14.90;76.98;101621.22;1776775;80;21126;-79
2021/08/12 02:55:54;;;;;;;8.50;4.45;;;;;;;14.89;76.99;101621.66;1764766;80;21097;-79
2021/08/12 02:58:21;;;;;;;7.17;4.58;;;;;;;14.83;77.05;101612.67;1745624;81;21786;-79
2021/08/12 03:00:48;;;;;;;6.85;4.80;;;;;;;14.87;77.07;101620.73;1765446;80;21082;-79
2021/08/12 03:03:18;;;;;;;8.20;4.20;;;;;;;14.86;77.13;101617.61;1760820;80;21091;-79
2021/08/12 03:05:46;;;;;;;9.15;5.33;;;;;;;14.86;77.17;101624.23;1776167;80;21141;-79
2021/08/12 03:08:18;;;;;;;8.18;4.90;;;;;;;14.86;77.22;101623.35;1776660;80;21655;-78
2021/08/12 03:10:45;;;;;;;7.70;4.83;;;;;;;14.85;77.25;101624.23;1813349;79;21908;-78
2021/08/12 03:13:12;;;;;;;6.20;4.50;;;;;;;14.84;77.29;101621.10;1773766;80;21094;-79
2021/08/12 03:15:39;;;;;;;6.65;4.70;;;;;;;14.83;77.32;101618.89;1768337;80;21114;-79
2021/08/12 03:18:06;;;;;;;6.75;4.85;;;;;;;14.84;77.37;101625.08;1763733;81;21526;-79
2021/08/12 03:20:33;;;;;;;7.45;4.78;;;;;;;14.84;77.37;101626.41;1768887;80;21047;-78
2021/08/12 03:23:00;;;;;;;7.47;4.95;;;;;;;14.85;77.39;101633.50;1772169;80;21723;-79
2021/08/12 03:25:27;;;;;;;6.75;4.78;;;;;;;14.84;77.42;101631.27;1771573;80;21042;-79
2021/08/12 03:27:54;;;;;;;7.97;4.75;;;;;;;14.86;77.49;101636.16;1762865;80;21535;-79
2021/08/12 03:30:21;;;;;;;9.33;4.97;;;;;;;14.87;77.48;101639.73;1771104;80;21525;-79
2021/08/12 03:32:48;;;;;;;5.35;4.35;;;;;;;14.87;77.48;101644.59;1770669;80;21015;-79
2021/08/12 03:35:15;;;;;;;8.48;4.78;;;;;;;14.88;77.51;101645.04;1764417;80;21739;-79
2021/08/12 03:37:42;;;;;;;7.15;4.80;;;;;;;14.92;77.58;101646.00;1736349;82;21134;-79
2021/08/12 03:40:10;;;;;;;6.30;4.90;;;;;;;14.94;77.61;101641.62;1720939;82;21624;-79
2021/08/12 03:42:37;;;;;;;7.53;4.53;;;;;;;14.97;77.60;101647.89;1806115;79;21062;-78
2021/08/12 03:45:05;;;;;;;7.28;4.50;;;;;;;15.01;77.63;101650.18;1806088;79;21049;-78
2021/08/12 03:47:32;;;;;;;7.12;4.50;;;;;;;15.08;77.81;101649.89;1811375;79;21954;-78
2021/08/12 03:49:59;;;;;;;8.30;4.22;;;;;;;15.48;78.74;101650.23;1791851;78;21125;-78
2021/08/12 03:52:32;;;;;;;8.30;4.58;;;;;;;16.12;78.90;101649.23;1777036;79;21000;-79
2021/08/12 03:54:58;;;;;;;6.78;4.60;;;;;;;16.88;78.71;101645.95;1809937;79;21038;-78
2021/08/12 03:57:25;;;;;;;9.20;4.70;;;;;;;17.72;78.05;101646.90;1797850;79;21082;-78
2021/08/12 03:59:52;;;;;;;9.18;4.50;;;;;;;18.54;77.20;101656.05;1809937;79;21786;-78
2021/08/12 04:02:21;;;;;;;6.37;4.78;;;;;;;19.35;76.08;101648.94;1810647;78;21113;-79
2021/08/12 04:04:47;;;;;;;5.87;3.98;;;;;;;20.10;74.82;101647.28;1816872;78;21034;-79
2021/08/12 04:07:20;;;;;;;6.40;3.83;;;;;;;20.84;73.89;101652.11;1810285;78;21125;-79
2021/08/12 04:09:47;;;;;;;4.65;3.65;;;;;;;21.62;72.81;101652.20;1800257;79;21054;-77
2021/08/12 04:12:17;;;;;;;9.63;4.03;;;;;;;22.43;71.60;101651.14;1751191;78;22484;-79
2021/08/12 04:14:48;;;;;;;8.25;4.20;;;;;;;23.20;70.29;101649.86;1764688;80;21074;-82
2021/08/12 04:17:15;;;;;;;5.67;3.92;;;;;;;23.94;68.81;101655.98;1773988;80;21112;-78
2021/08/12 04:19:42;;;;;;;8.35;3.95;;;;;;;24.67;67.45;101656.52;1742114;81;21129;-79
2021/08/12 04:22:12;;;;;;;8.35;3.90;;;;;;;25.44;66.16;101659.46;1777119;80;21019;-77
2021/08/12 04:24:46;;;;;;;7.17;3.70;;;;;;;26.19;64.70;101659.03;1771896;80;21613;-78
2021/08/12 04:27:14;;;;;;;10.25;3.75;;;;;;;26.91;63.58;101657.08;1770392;80;21105;-78
2021/08/12 04:29:45;;;;;;;5.65;3.58;;;;;;;27.63;62.02;101665.31;1734799;81;21007;-78
2021/08/12 04:32:10;;;;;;;8.88;3.52;;;;;;;28.34;60.49;101664.36;1807215;78;21061;-82
2021/08/12 04:34:40;;;;;;;6.45;3.75;;;;;;;29.03;59.38;101667.31;1773916;80;21301;-83
2021/08/12 04:37:18;;;;;;;7.92;4.17;;;;;;;29.73;58.16;101672.30;1718503;82;21020;-84
2021/08/12 04:39:47;;;;;;;;;;;;;;;30.42;56.86;101669.45;1753531;80;21129;-82
2021/08/12 04:42:20;;;;;;;5.87;3.80;;;;;;;31.17;54.70;101674.22;1764603;80;20222;-83
2021/08/12 04:44:50;;;;;;;10.65;3.40;;;;;;;31.73;54.13;101677.05;1742734;82;21580;-85
2021/08/12 04:47:17;;;;;;;4.87;3.17;;;;;;;32.30;52.79;101680.56;1739960;81;21078;-84
2021/08/12 04:49:46;;;;;;;5.78;3.60;;;;;;;32.76;51.30;101685.94;1748196;81;22521;-82
2021/08/12 04:52:12;;;;;;;5.70;2.72;;;;;;;32.70;49.57;101687.15;1743434;82;21791;-80
2021/08/12 04:54:39;;;;;;;8.35;3.42;;;;;;;32.69;49.46;101686.73;1743202;81;21541;-80
2021/08/12 04:57:07;;;;;;;9.18;3.52;;;;;;;33.24;48.84;101686.95;1736746;82;21063;-83
2021/08/12 04:59:36;;;;;;;6.58;3.55;;;;;;;33.83;47.81;101687.30;1732862;82;21108;-83
2021/08/12 05:02:05;;;;;;;5.30;3.50;;;;;;;34.50;46.75;101687.87;1720308;81;22066;-79
2021/08/12 05:04:39;;;;;;;6.45;3.42;;;;;;;35.11;45.68;101686.41;1740781;81;21013;-79
2021/08/12 05:07:04;;;;;;;3.92;3.17;;;;;;;35.73;44.84;101683.34;1726680;82;21102;-79
2021/08/12 05:09:30;;;;;;;4.60;3.42;;;;;;;36.39;43.21;101684.34;1719245;82;21089;-79
2021/08/12 05:12:01;;;;;;;7.42;3.45;;;;;;;36.53;42.12;101682.03;1706598;82;21118;-80
2021/08/12 05:14:26;;;;;;;6.22;3.33;;;;;;;36.93;41.28;101686.94;1714067;82;21858;-79
2021/08/12 05:16:53;;;;;;;9.38;3.30;;;;;;;37.21;40.59;101688.23;1737498;81;21034;-80
2021/08/12 05:19:24;;;;;;;5.42;3.70;;;;;;;37.47;39.88;101687.67;1741134;82;21081;-80
2021/08/12 05:21:54;;;;;;;5.78;3.45;;;;;;;37.60;38.64;101692.63;1720277;83;21417;-80
2021/08/12 05:24:21;;;;;;;4.12;3.50;;;;;;;37.59;38.13;101689.48;1753651;81;21653;-80
2021/08/12 05:26:47;;;;;;;3.05;2.70;;;;;;;37.72;37.80;101688.11;1758932;81;22458;-80
2021/08/12 05:29:19;;;;;;;6.25;3.52;;;;;;;38.11;37.55;101691.59;1795440;79;21125;-80
2021/08/12 05:31:48;;;;;;;5.58;3.27;;;;;;;38.53;36.66;101693.86;1798170;79;20995;-80
2021/08/12 05:34:15;;;;;;;5.62;3.02;;;;;;;38.70;36.18;101698.41;1796147;79;21244;-82
2021/08/12 05:36:44;;;;;;;6.80;3.70;;;;;;;38.96;35.91;101707.84;1796622;79;21106;-80
2021/08/12 05:39:11;;;;;;;6.53;3.52;;;;;;;39.20;35.49;101701.39;1792101;79;22474;-80
2021/08/12 05:41:44;;;;;;;6.37;3.80;;;;;;;39.07;34.82;101703.75;1787219;79;21281;-80
2021/08/12 05:44:09;;;;;;;8.35;5.33;;;;;;;37.97;34.00;101704.97;1794614;79;21004;-80
2021/08/12 05:46:36;;;;;;;10.63;3.77;;;;;;;36.11;33.56;101705.39;1795253;79;21048;-80
2021/08/12 05:49:03;;;;;;;8.13;4.80;;;;;;;34.17;34.53;101710.80;1793419;79;21113;-80
2021/08/12 05:51:34;;;;;;;5.97;3.75;;;;;;;32.61;35.33;101703.99;1785521;79;21786;-79
2021/08/12 05:54:01;;;;;;;6.58;3.98;;;;;;;31.05;36.40;101701.13;1798903;79;21059;-80
2021/08/12 05:56:31;;;;;;;8.48;5.47;;;;;;;29.61;37.64;101709.83;1795498;79;21119;-80
2021/08/12 05:58:56;;;;;;;6.12;4.28;;;;;;;28.48;38.92;101700.86;1793359;79;21465;-80
2021/08/12 06:01:23;;;;;;;6.53;3.98;;;;;;;27.49;40.03;101713.09;1795351;79;21553;-79
2021/08/12 06:03:50;;;;;;;9.10;4.53;;;;;;;26.65;41.38;101709.59;1795252;79;21793;-80
2021/08/12 06:06:17;;;;;;;8.55;4.28;;;;;;;26.03;42.43;101714.29;1793549;79;21059;-80
2021/08/12 06:08:44;;;;;;;8.13;4.17;;;;;;;25.33;43.52;101711.77;1794467;79;21052;-80
2021/08/12 06:11:11;;;;;;;8.43;3.98;;;;;;;24.78;44.53;101713.74;1796228;79;21161;-79
2021/08/12 06:13:38;;;;;;;7.67;4.62;;;;;;;24.22;45.52;101713.79;1795419;79;20992;-79
2021/08/12 06:16:06;;;;;;;10.48;5.90;;;;;;;23.89;46.47;101721.05;1796118;79;21769;-79
2021/08/12 06:18:33;;;;;;;8.08;5.40;;;;;;;23.57;47.27;101723.70;1791259;79;21563;-80
2021/08/12 06:21:00;;;;;;;6.65;4.65;;;;;;;23.18;48.00;101729.58;1783228;79;21125;-79
2021/08/12 06:23:30;;;;;;;9.05;6.97;;;;;;;22.97;48.76;101728.42;1794703;79;21032;-79
2021/08/12 06:25:58;;;;;;;6.37;4.10;;;;;;;22.73;49.38;101730.91;1795159;79;21611;-79
2021/08/12 06:28:27;;;;;;;6.37;4.70;;;;;;;22.48;50.02;101736.50;1760586;79;21035;-79
2021/08/12 06:30:54;;;;;;;8.63;5.03;;;;;;;22.28;50.72;101733.97;1795695;79;21015;-79
2021/08/12 06:33:21;;;;;;;11.53;4.33;;;;;;;22.10;51.44;101720.24;1795302;79;21042;-79
2021/08/12 06:35:48;;;;;;;5.85;4.50;;;;;;;22.09;51.86;101716.68;1788658;79;21070;-79
2021/08/12 06:38:15;;;;;;;7.45;3.90;;;;;;;22.17;52.11;101727.77;1786119;79;21015;-79
2021/08/12 06:40:42;;;;;;;6.70;3.47;;;;;;;22.06;52.46;101728.75;1790969;79;21777;-79
2021/08/12 06:43:09;;;;;;;7.65;2.95;;;;;;;22.02;52.71;101727.00;1798545;79;20992;-79
2021/08/12 06:45:36;;;;;;;5.00;2.95;;;;;;;21.94;52.87;101732.42;1794361;79;21079;-79
2021/08/12 06:48:06;;;;;;;7.40;3.72;;;;;;;21.86;53.14;101730.22;1795118;79;21053;-79
2021/08/12 06:50:33;;;;;;;7.90;3.77;;;;;;;21.80;53.36;101740.98;1793433;79;21047;-79
2021/08/12 06:53:00;;;;;;;7.45;3.33;;;;;;;21.59;53.99;101749.15;1791866;80;21883;-79
2021/08/12 06:55:27;;;;;;;3.70;2.70;;;;;;;21.38;53.94;101736.68;1794383;79;21504;-79
2021/08/12 06:57:53;;;;;;;6.78;2.90;;;;;;;21.28;54.03;101749.22;1795225;79;21046;-79
2021/08/12 07:00:28;;;;;;;7.45;3.02;;;;;;;21.16;54.45;101739.45;1791428;79;39434;-79
2021/08/12 07:02:55;;;;;;;4.75;2.98;;;;;;;21.03;54.71;101740.38;1793597;79;21564;-77
2021/08/12 07:05:24;;;;;;;7.83;2.80;;;;;;;21.06;55.28;101739.94;1792304;79;21536;-78
2021/08/12 07:07:50;;;;;;;5.37;2.90;;;;;;;21.09;55.34;101749.27;1790126;79;21000;-78
2021/08/12 07:10:23;;;;;;;6.80;2.98;;;;;;;21.12;55.50;101750.61;1792927;79;20980;-78
2021/08/12 07:12:52;;;;;;;3.40;2.80;;;;;;;21.27;55.43;101753.70;1797519;79;21051;-78
2021/08/12 07:15:21;;;;;;;8.25;3.10;;;;;;;21.36;55.42;101746.97;1795270;79;21067;-78
2021/08/12 07:17:48;;;;;;;5.28;2.95;;;;;;;21.45;55.26;101754.09;1784816;79;21771;-78
2021/08/12 07:20:15;;;;;;;3.33;2.75;;;;;;;21.54;55.05;101754.52;1785330;79;21098;-78
2021/08/12 07:22:41;;;;;;;4.90;2.37;;;;;;;21.56;54.87;101743.34;1795267;79;21043;-78
2021/08/12 07:25:11;;;;;;;3.20;2.60;;;;;;;21.56;55.04;101740.66;1799626;79;21043;-78
2021/08/12 07:27:38;;;;;;;7.08;3.15;;;;;;;21.70;55.42;101735.25;1794177;79;21133;-78
2021/08/12 07:30:06;;;;;;;8.85;5.28;;;;;;;21.84;55.33;101745.87;1793462;79;21812;-80
2021/08/12 07:32:33;;;;;;;5.87;2.47;;;;;;;21.93;55.14;101749.84;1794980;79;21063;-78
2021/08/12 07:35:00;;;;;;;4.90;3.90;;;;;;;21.93;54.66;101746.70;1795409;79;21612;-78
2021/08/12 07:37:27;;;;;;;5.12;2.10;;;;;;;21.92;54.59;101740.01;1793538;79;21385;-78
2021/08/12 07:39:54;;;;;;;4.30;3.02;;;;;;;21.90;54.44;101742.73;1794454;79;21560;-78
2021/08/12 07:42:20;;;;;;;8.80;3.50;;;;;;;21.92;54.81;101744.95;1794863;79;21935;-78
2021/08/12 07:44:47;;;;;;;4.53;2.40;;;;;;;22.07;54.75;101743.95;1796010;79;21363;-78
2021/08/12 07:47:14;;;;;;;5.12;2.60;;;;;;;22.17;54.64;101741.18;1795070;79;21059;-78
2021/08/12 07:49:41;;;;;;;4.67;3.35;;;;;;;22.21;54.25;101742.50;1787495;79;20972;-78
2021/08/12 07:52:08;;;;;;;2.70;2.10;;;;;;;22.20;53.89;101747.41;1795462;79;21607;-78
2021/08/12 07:54:36;;;;;;;4.83;2.20;;;;;;;22.21;53.95;101749.67;1800982;79;23146;-78
2021/08/12 07:57:05;;;;;;;2.92;2.15;;;;;;;22.21;53.79;101755.91;1796954;79;21663;-78
2021/08/12 07:59:32;;;;;;;10.05;4.20;;;;;;;22.22;53.64;101756.33;1794330;79;21670;-79
2021/08/12 08:01:59;;;;;;;5.97;4.78;;;;;;;22.19;53.35;101759.06;1797133;79;21105;-78
2021/08/12 08:04:27;;;;;;;4.95;4.15;;;;;;;22.17;53.30;101765.31;1794741;79;20992;-78
2021/08/12 08:06:54;;;;;;;6.08;2.80;;;;;;;22.18;53.28;101766.65;1795546;79;22108;-78
2021/08/12 08:09:28;;;;;;;6.75;2.55;;;;;;;22.17;53.41;101758.61;1795248;79;21051;-78
2021/08/12 08:11:49;;;;;;;3.83;1.95;;;;;;;22.20;53.30;101770.20;1793523;79;21039;-78
2021/08/12 08:14:16;;;;;;;7.75;6.53;;;;;;;22.20;52.92;101770.66;1796770;79;21035;-78
2021/08/12 08:16:43;;;;;;;5.53;4.50;;;;;;;22.14;52.86;101772.94;1795717;79;21545;-78
2021/08/12 08:19:10;;;;;;;7.58;4.10;;;;;;;22.13;52.84;101776.54;1795479;79;22327;-78
2021/08/12 08:21:39;;;;;;;4.72;3.50;;;;;;;22.23;52.44;101770.20;1793877;79;21129;-78
2021/08/12 08:24:11;;;;;;;4.35;3.52;;;;;;;22.23;52.44;101770.20;1795006;79;21102;-78
2021/08/12 08:26:41;;;;;;;4.37;2.55;;;;;;;22.27;52.36;101769.30;1792915;79;21121;-78
2021/08/12 08:29:08;;;;;;;2.15;1.80;;;;;;;22.35;52.22;101769.70;1795415;79;21086;-78
2021/08/12 08:31:35;;;;;;;5.35;3.02;;;;;;;22.42;52.11;101769.64;1796163;79;21733;-78
2021/08/12 08:34:02;;;;;;;2.67;1.82;;;;;;;22.48;51.85;101775.41;1794135;79;21102;-78
2021/08/12 08:36:29;;;;;;;3.15;2.00;;;;;;;22.51;51.32;101766.88;1797141;79;21016;-78
2021/08/12 08:38:55;;;;;;;9.83;2.10;;;;;;;22.42;51.24;101752.66;1789839;79;21646;-78
2021/08/12 08:41:22;;;;;;;2.75;1.65;;;;;;;22.42;51.24;101752.66;1781526;79;21583;-78
2021/08/12 08:43:49;;;;;;;3.52;2.25;;;;;;;22.66;51.62;101773.91;1796966;79;22530;-77
2021/08/12 08:46:19;;;;;;;4.35;2.42;;;;;;;23.13;51.52;101769.48;1793489;79;21062;-78
2021/08/12 08:48:45;;;;;;;5.67;2.02;;;;;;;23.13;51.52;101769.48;1747068;79;21077;-78
2021/08/12 08:51:15;;;;;;;2.47;1.60;;;;;;;23.40;51.50;101772.28;1794362;79;21043;-80
2021/08/12 08:53:46;;;;;;;2.67;2.22;;;;;;;23.66;50.97;101775.99;1793134;79;21143;-80
2021/08/12 08:56:12;;;;;;;4.62;1.75;;;;;;;23.74;50.27;101778.11;1793291;79;22476;-79
2021/08/12 08:58:39;;;;;;;4.33;1.60;;;;;;;23.59;49.70;101756.81;1794300;79;21604;-80
2021/08/12 09:01:06;;;;;;;1.75;1.42;;;;;;;23.64;49.77;101780.03;1794437;79;21059;-79
2021/08/12 09:03:34;;;;;;;3.47;1.50;;;;;;;23.68;49.55;101777.73;1794789;79;21105;-80
2021/08/12 09:06:02;;;;;;;2.47;1.30;;;;;;;23.78;49.43;101791.05;1795915;79;21585;-79
2021/08/12 09:08:32;;;;;;;8.48;4.87;;;;;;;23.90;49.26;101784.68;1794393;79;21686;-80
2021/08/12 09:10:59;;;;;;;5.75;4.50;;;;;;;24.05;49.32;101789.84;1795691;78;21644;-80
2021/08/12 09:13:33;;;;;;;3.40;3.00;;;;;;;24.18;49.21;101786.52;1792857;79;21008;-80
2021/08/12 09:16:01;;;;;;;6.95;2.70;;;;;;;24.17;48.74;101792.79;1795148;79;21098;-79
2021/08/12 09:18:28;;;;;;;3.08;1.75;;;;;;;24.05;48.48;101786.68;1795579;79;21047;-79
2021/08/12 09:20:58;;;;;;;3.15;1.95;;;;;;;24.10;48.29;101789.32;1795106;79;21792;-80
2021/08/12 09:23:29;;;;;;;4.33;1.20;;;;;;;24.06;47.78;101784.87;1795192;79;21055;-79
2021/08/12 09:25:58;;;;;;;1.40;1.25;;;;;;;23.94;47.61;101785.95;1773424;79;21456;-80
2021/08/12 09:28:30;;;;;;;2.98;1.95;;;;;;;23.84;47.68;101785.66;1798742;79;21462;-80
2021/08/12 09:31:05;;;;;;;2.70;2.20;;;;;;;23.89;48.39;101797.21;1794869;79;21048;-80
2021/08/12 09:33:43;;;;;;;3.47;1.95;;;;;;;23.94;47.86;101801.20;1794916;79;22724;-79
2021/08/12 09:36:35;;;;;;;2.10;1.57;;;;;;;23.99;47.72;101795.31;1795309;79;21647;-80
2021/08/12 09:39:22;;;;;;;2.55;1.50;;;;;;;24.10;47.39;101793.36;1795539;79;21071;-80
2021/08/12 09:41:53;;;;;;;5.33;1.80;;;;;;;24.21;47.05;101794.08;1789185;79;21223;-78
2021/08/12 09:44:44;;;;;;;2.13;1.13;;;;;;;24.29;47.00;101794.39;1794273;79;21031;-78
2021/08/12 09:47:20;;;;;;;1.65;1.25;;;;;;;24.31;46.87;101794.83;1792581;79;22553;-79
2021/08/12 09:49:53;;;;;;;2.77;1.50;;;;;;;24.30;46.48;101798.41;1771782;79;21090;-79
2021/08/12 09:52:33;;;;;;;5.60;3.98;;;;;;;24.34;46.67;101810.02;1797823;79;21556;-79
2021/08/12 09:55:17;;;;;;;2.22;1.42;;;;;;;24.37;46.35;101797.88;1782735;79;21119;-79
2021/08/12 09:57:57;;;;;;;3.37;1.10;;;;;;;24.56;46.47;101795.34;1793487;79;21070;-79
2021/08/12 10:00:30;;;;;;;14.07;2.33;;;;;;;24.78;46.01;101794.98;1797236;79;22268;-79
2021/08/12 10:02:58;;;;;;;4.17;2.80;;;;;;;24.92;46.11;101794.27;1799063;79;21062;-80
2021/08/12 10:05:25;;;;;;;2.75;2.00;;;;;;;25.03;45.75;101796.30;1797754;79;21062;-80
2021/08/12 10:07:54;;;;;;;3.35;2.30;;;;;;;25.12;45.42;101792.55;1795215;79;21230;-80
2021/08/12 10:10:26;;;;;;;3.00;2.47;;;;;;;25.25;45.49;101792.37;1795927;79;21055;-80
2021/08/12 10:12:59;;;;;;;3.08;1.82;;;;;;;25.51;45.05;101795.86;1797861;78;22560;-80
2021/08/12 10:15:32;;;;;;;1.72;1.62;;;;;;;25.72;45.11;101797.23;1792544;79;21063;-80
2021/08/12 10:18:01;;;;;;;4.08;2.17;;;;;;;25.87;44.59;101798.71;1795813;79;21027;-79
2021/08/12 10:20:33;;;;;;;5.67;2.22;;;;;;;25.89;44.17;101803.61;1779343;79;21074;-80
2021/08/12 10:23:02;;;;;;;3.40;1.65;;;;;;;25.90;44.08;101806.28;1779876;79;21042;-81
2021/08/12 10:25:29;;;;;;;6.60;2.80;;;;;;;25.97;44.18;101800.30;1791015;79;22583;-79
2021/08/12 10:28:01;;;;;;;3.70;3.12;;;;;;;26.09;44.07;101801.39;1784383;79;22265;-81
2021/08/12 10:30:28;;;;;;;5.90;2.20;;;;;;;26.07;43.67;101803.23;1786982;79;21069;-79
2021/08/12 10:33:01;;;;;;;3.75;1.50;;;;;;;26.01;43.50;101797.95;1784227;79;21035;-78
2021/08/12 10:35:30;;;;;;;6.62;3.30;;;;;;;25.94;43.38;101797.66;1772770;79;21545;-79
2021/08/12 10:37:57;;;;;;;7.55;2.98;;;;;;;25.90;43.28;101799.53;1795332;79;21794;-79
2021/08/12 10:40:27;;;;;;;13.58;2.47;;;;;;;25.79;43.33;101805.16;1795298;79;21066;-79
2021/08/12 10:42:54;;;;;;;18.00;3.10;;;;;;;25.68;42.86;101798.23;1797355;79;21043;-79
2021/08/12 10:45:22;;;;;;;22.45;3.52;;;;;;;25.53;42.58;101804.36;1794852;79;21545;-79
2021/08/12 10:47:57;;;;;;;11.05;2.50;;;;;;;25.41;42.56;101801.47;1796115;79;21071;-79
2021/08/12 10:50:37;;;;;;;4.47;1.72;;;;;;;25.39;42.67;101798.34;1795039;79;21907;-81
2021/08/12 10:53:14;;;;;;;4.50;1.50;;;;;;;25.42;42.98;101798.30;1793759;79;21067;-79
2021/08/12 10:56:03;;;;;;;5.30;2.00;;;;;;;25.49;42.81;101795.00;1795204;78;20975;-79
2021/08/12 10:58:35;;;;;;;2.20;1.85;;;;;;;25.55;42.76;101795.78;1794943;79;21141;-79
2021/08/12 11:01:06;;;;;;;4.47;2.10;;;;;;;25.55;42.70;101797.59;1795230;79;21102;-80
2021/08/12 11:03:43;;;;;;;5.60;2.80;;;;;;;25.53;42.56;101798.97;1795113;79;21051;-80
2021/08/12 11:06:20;;;;;;;10.00;4.10;;;;;;;25.61;42.79;101796.11;1794680;79;25302;-80
2021/08/12 11:08:54;;;;;;;1.90;1.37;;;;;;;25.89;42.80;101795.05;1794250;79;21524;-80
2021/08/12 11:11:34;;;;;;;5.17;2.90;;;;;;;26.15;42.53;101793.61;1792413;79;21090;-80
2021/08/12 11:14:10;;;;;;;2.05;1.60;;;;;;;26.29;42.07;101797.31;1789970;79;21486;-80
2021/08/12 11:16:48;;;;;;;8.30;1.90;;;;;;;26.43;41.89;101790.22;1762126;79;21521;-80
2021/08/12 11:19:30;;;;;;;1.50;1.02;;;;;;;26.63;41.70;101796.52;1797551;79;21063;-80
2021/08/12 11:21:56;;;;;;;5.87;1.45;;;;;;;26.90;41.44;101792.23;1795293;79;21004;-80
2021/08/12 11:24:29;;;;;;;1.30;1.10;;;;;;;27.21;41.28;101796.30;1795842;79;21623;-80
2021/08/12 11:27:01;;;;;;;5.90;2.00;;;;;;;27.57;41.09;101783.16;1790982;79;21070;-80
2021/08/12 11:29:32;;;;;;;3.05;1.47;;;;;;;27.93;40.70;101787.97;1793690;79;21784;-80
2021/08/12 11:32:16;;;;;;;4.62;1.62;;;;;;;28.22;40.43;101784.32;1793706;79;21525;-79
2021/08/12 11:34:58;;;;;;;0.90;0.88;;;;;;;28.46;40.01;101782.63;1792905;79;21635;-79
2021/08/12 11:37:28;;;;;;;1.77;1.37;;;;;;;28.55;39.16;101787.34;1793997;79;21089;-80